LNI334 WIII-WIPP
Flight info
| Callsign | LNI334 |
|---|---|
| Flight time | 0h 42m |
| Altitude | 30000 |
| Route | DOLTA W12 GUSKO |
| Aircraft | B739/M-SDE2E3FGHIRWXY/LB1 |
Departure
| Time | 2026-05-07 12:34 |
|---|---|
| Airport | Soekarno-Hatta International Airport (WIII) |
Arrival
| Time | 2026-05-07 13:16 |
|---|---|
| Airport | Sultan Mahmud Badaruddin II Airport (WIPP) |
| Time | Latitude | Longitude | Altitude | Speed | Heading |
|---|---|---|---|---|---|
| 2026-05-07 12:12 | -6.13185 | 106.65755 | 37 ft | 0 kts | 279° |
| 2026-05-07 12:23 | -6.13187 | 106.65769 | 37 ft | 3 kts | 279° |
| 2026-05-07 12:23 | -6.13190 | 106.65789 | 37 ft | 2 kts | 278° |
| 2026-05-07 12:23 | -6.13193 | 106.65805 | 37 ft | 3 kts | 263° |
| 2026-05-07 12:24 | -6.13187 | 106.65820 | 35 ft | 3 kts | 214° |
| 2026-05-07 12:24 | -6.13170 | 106.65828 | 37 ft | 3 kts | 188° |
| 2026-05-07 12:24 | -6.13160 | 106.65829 | 37 ft | 1 kts | 187° |
| 2026-05-07 12:24 | -6.13158 | 106.65829 | 37 ft | 0 kts | 187° |
| 2026-05-07 12:27 | -6.13176 | 106.65827 | 37 ft | 7 kts | 187° |
| 2026-05-07 12:27 | -6.13236 | 106.65819 | 36 ft | 9 kts | 187° |
| 2026-05-07 12:27 | -6.13298 | 106.65811 | 37 ft | 10 kts | 181° |
| 2026-05-07 12:27 | -6.13371 | 106.65831 | 37 ft | 11 kts | 159° |
| 2026-05-07 12:28 | -6.13442 | 106.65847 | 37 ft | 11 kts | 196° |
| 2026-05-07 12:28 | -6.13483 | 106.65789 | 37 ft | 10 kts | 248° |
| 2026-05-07 12:28 | -6.13509 | 106.65723 | 37 ft | 10 kts | 248° |
| 2026-05-07 12:28 | -6.13534 | 106.65659 | 37 ft | 10 kts | 248° |
| 2026-05-07 12:29 | -6.13559 | 106.65597 | 36 ft | 9 kts | 248° |
| 2026-05-07 12:29 | -6.13583 | 106.65536 | 36 ft | 9 kts | 248° |
| 2026-05-07 12:29 | -6.13607 | 106.65477 | 37 ft | 9 kts | 248° |
| 2026-05-07 12:29 | -6.13631 | 106.65416 | 36 ft | 11 kts | 248° |
| 2026-05-07 12:30 | -6.13675 | 106.65306 | 36 ft | 23 kts | 248° |
| 2026-05-07 12:30 | -6.13739 | 106.65146 | 38 ft | 24 kts | 248° |
| 2026-05-07 12:30 | -6.13799 | 106.64996 | 38 ft | 23 kts | 248° |
| 2026-05-07 12:30 | -6.13857 | 106.64851 | 38 ft | 22 kts | 248° |
| 2026-05-07 12:31 | -6.13913 | 106.64711 | 38 ft | 21 kts | 248° |
| 2026-05-07 12:31 | -6.13968 | 106.64573 | 38 ft | 21 kts | 250° |
| 2026-05-07 12:31 | -6.14020 | 106.64445 | 37 ft | 17 kts | 248° |
| 2026-05-07 12:31 | -6.14062 | 106.64341 | 38 ft | 14 kts | 246° |
| 2026-05-07 12:32 | -6.14127 | 106.64294 | 37 ft | 11 kts | 184° |
| 2026-05-07 12:32 | -6.14191 | 106.64328 | 37 ft | 10 kts | 121° |
| 2026-05-07 12:32 | -6.14225 | 106.64374 | 39 ft | 6 kts | 150° |
| 2026-05-07 12:32 | -6.14231 | 106.64405 | 39 ft | 5 kts | 74° |
| 2026-05-07 12:33 | -6.14136 | 106.64647 | 36 ft | 72 kts | 68° |
| 2026-05-07 12:33 | -6.13854 | 106.65354 | 38 ft | 143 kts | 68° |
| 2026-05-07 12:33 | -6.13427 | 106.66434 | 297 ft | 177 kts | 69° |
| 2026-05-07 12:34 | -6.12971 | 106.67600 | 1162 ft | 179 kts | 68° |
| 2026-05-07 12:34 | -6.12496 | 106.68776 | 1945 ft | 188 kts | 68° |
| 2026-05-07 12:34 | -6.11966 | 106.70079 | 2220 ft | 212 kts | 68° |
| 2026-05-07 12:34 | -6.11389 | 106.71495 | 2626 ft | 223 kts | 71° |
| 2026-05-07 12:35 | -6.11217 | 106.73028 | 3181 ft | 225 kts | 102° |
| 2026-05-07 12:35 | -6.11890 | 106.74431 | 3870 ft | 227 kts | 128° |
| 2026-05-07 12:35 | -6.13083 | 106.75484 | 4574 ft | 231 kts | 146° |
| 2026-05-07 12:35 | -6.14572 | 106.76122 | 5311 ft | 235 kts | 160° |
| 2026-05-07 12:36 | -6.15715 | 106.76427 | 5821 ft | 239 kts | 171° |
| 2026-05-07 12:36 | -6.17360 | 106.76224 | 6446 ft | 250 kts | 200° |
| 2026-05-07 12:36 | -6.18830 | 106.75272 | 7137 ft | 256 kts | 221° |
| 2026-05-07 12:36 | -6.19791 | 106.73755 | 7735 ft | 265 kts | 255° |
| 2026-05-07 12:37 | -6.19878 | 106.71861 | 8021 ft | 286 kts | 284° |
| 2026-05-07 12:37 | -6.18993 | 106.70053 | 8308 ft | 300 kts | 310° |
| 2026-05-07 12:37 | -6.17551 | 106.68509 | 8898 ft | 304 kts | 317° |
| 2026-05-07 12:37 | -6.16007 | 106.67050 | 9573 ft | 306 kts | 319° |
| 2026-05-07 12:38 | -6.14433 | 106.65601 | 10251 ft | 308 kts | 319° |
| 2026-05-07 12:38 | -6.12805 | 106.64102 | 10468 ft | 328 kts | 318° |
| 2026-05-07 12:38 | -6.11081 | 106.62501 | 10628 ft | 347 kts | 318° |
| 2026-05-07 12:38 | -6.09274 | 106.60806 | 10860 ft | 362 kts | 317° |
| 2026-05-07 12:39 | -6.07426 | 106.59061 | 11372 ft | 366 kts | 317° |
| 2026-05-07 12:39 | -6.05568 | 106.57297 | 11971 ft | 368 kts | 317° |
| 2026-05-07 12:39 | -6.03707 | 106.55525 | 12599 ft | 369 kts | 317° |
| 2026-05-07 12:39 | -6.01833 | 106.53739 | 13113 ft | 374 kts | 317° |
| 2026-05-07 12:40 | -5.99939 | 106.51934 | 13609 ft | 378 kts | 317° |
| 2026-05-07 12:40 | -5.98023 | 106.50107 | 14138 ft | 380 kts | 317° |
| 2026-05-07 12:40 | -5.96100 | 106.48274 | 14669 ft | 383 kts | 317° |
| 2026-05-07 12:40 | -5.94155 | 106.46420 | 15147 ft | 387 kts | 317° |
| 2026-05-07 12:41 | -5.92194 | 106.44553 | 15630 ft | 390 kts | 317° |
| 2026-05-07 12:41 | -5.90223 | 106.42674 | 16120 ft | 392 kts | 317° |
| 2026-05-07 12:41 | -5.88231 | 106.40775 | 16574 ft | 396 kts | 317° |
| 2026-05-07 12:41 | -5.86225 | 106.38863 | 17043 ft | 399 kts | 317° |
| 2026-05-07 12:42 | -5.84207 | 106.36941 | 17477 ft | 402 kts | 317° |
| 2026-05-07 12:42 | -5.82171 | 106.35002 | 17879 ft | 405 kts | 317° |
| 2026-05-07 12:42 | -5.80115 | 106.33043 | 18272 ft | 408 kts | 317° |
| 2026-05-07 12:42 | -5.78052 | 106.31076 | 18698 ft | 410 kts | 317° |
| 2026-05-07 12:43 | -5.75976 | 106.29099 | 19145 ft | 412 kts | 317° |
| 2026-05-07 12:43 | -5.73850 | 106.27172 | 19561 ft | 412 kts | 323° |
| 2026-05-07 12:43 | -5.71453 | 106.25592 | 19951 ft | 413 kts | 332° |
| 2026-05-07 12:43 | -5.68941 | 106.24191 | 20357 ft | 414 kts | 333° |
| 2026-05-07 12:44 | -5.66406 | 106.22800 | 20732 ft | 416 kts | 333° |
| 2026-05-07 12:44 | -5.63864 | 106.21402 | 21087 ft | 418 kts | 332° |
| 2026-05-07 12:44 | -5.61313 | 106.19985 | 21431 ft | 420 kts | 332° |
| 2026-05-07 12:44 | -5.58756 | 106.18554 | 21778 ft | 421 kts | 332° |
| 2026-05-07 12:45 | -5.56192 | 106.17110 | 22112 ft | 423 kts | 332° |
| 2026-05-07 12:45 | -5.53625 | 106.15661 | 22443 ft | 424 kts | 332° |
| 2026-05-07 12:45 | -5.51048 | 106.14206 | 22752 ft | 426 kts | 332° |
| 2026-05-07 12:45 | -5.48459 | 106.12743 | 23053 ft | 427 kts | 332° |
| 2026-05-07 12:46 | -5.45866 | 106.11278 | 23335 ft | 429 kts | 332° |
| 2026-05-07 12:46 | -5.43293 | 106.09825 | 23614 ft | 430 kts | 332° |
| 2026-05-07 12:46 | -5.40681 | 106.08351 | 23870 ft | 432 kts | 332° |
| 2026-05-07 12:46 | -5.38045 | 106.06864 | 23850 ft | 436 kts | 332° |
| 2026-05-07 12:47 | -5.35406 | 106.05375 | 23856 ft | 434 kts | 332° |
| 2026-05-07 12:47 | -5.32789 | 106.03898 | 23848 ft | 430 kts | 332° |
| 2026-05-07 12:47 | -5.30177 | 106.02423 | 23865 ft | 431 kts | 332° |
| 2026-05-07 12:47 | -5.27560 | 106.00946 | 23871 ft | 433 kts | 332° |
| 2026-05-07 12:48 | -5.24936 | 105.99465 | 23871 ft | 434 kts | 332° |
| 2026-05-07 12:48 | -5.22292 | 105.97973 | 24045 ft | 437 kts | 332° |
| 2026-05-07 12:48 | -5.19644 | 105.96477 | 24379 ft | 436 kts | 332° |
| 2026-05-07 12:48 | -5.17000 | 105.94985 | 24664 ft | 437 kts | 332° |
| 2026-05-07 12:49 | -5.14347 | 105.93487 | 24892 ft | 439 kts | 332° |
| 2026-05-07 12:49 | -5.11683 | 105.91983 | 25128 ft | 441 kts | 332° |
| 2026-05-07 12:49 | -5.09007 | 105.90464 | 25342 ft | 442 kts | 332° |
| 2026-05-07 12:49 | -5.06329 | 105.88937 | 25559 ft | 444 kts | 332° |
| 2026-05-07 12:50 | -5.03638 | 105.87401 | 25757 ft | 446 kts | 332° |
| 2026-05-07 12:50 | -5.00934 | 105.85857 | 25857 ft | 449 kts | 332° |
| 2026-05-07 12:50 | -4.98214 | 105.84305 | 25857 ft | 452 kts | 332° |
| 2026-05-07 12:50 | -4.95482 | 105.82746 | 25863 ft | 452 kts | 332° |
| 2026-05-07 12:51 | -4.92748 | 105.81186 | 25853 ft | 450 kts | 332° |
| 2026-05-07 12:51 | -4.90030 | 105.79638 | 25856 ft | 449 kts | 332° |
| 2026-05-07 12:51 | -4.87318 | 105.78095 | 25860 ft | 448 kts | 332° |
| 2026-05-07 12:51 | -4.84611 | 105.76553 | 25861 ft | 448 kts | 332° |
| 2026-05-07 12:52 | -4.81903 | 105.75009 | 25864 ft | 448 kts | 332° |
| 2026-05-07 12:52 | -4.79197 | 105.73467 | 25860 ft | 448 kts | 332° |
| 2026-05-07 12:52 | -4.76483 | 105.71921 | 25862 ft | 449 kts | 332° |
| 2026-05-07 12:52 | -4.73770 | 105.70375 | 25864 ft | 449 kts | 332° |
| 2026-05-07 12:53 | -4.71053 | 105.68828 | 25862 ft | 449 kts | 332° |
| 2026-05-07 12:53 | -4.68332 | 105.67278 | 25861 ft | 450 kts | 332° |
| 2026-05-07 12:53 | -4.65612 | 105.65728 | 25862 ft | 450 kts | 332° |
| 2026-05-07 12:53 | -4.62884 | 105.64175 | 25860 ft | 451 kts | 332° |
| 2026-05-07 12:54 | -4.60158 | 105.62624 | 25859 ft | 451 kts | 332° |
| 2026-05-07 12:54 | -4.57426 | 105.61069 | 25864 ft | 451 kts | 332° |
| 2026-05-07 12:54 | -4.54731 | 105.59535 | 25862 ft | 452 kts | 332° |
| 2026-05-07 12:54 | -4.51966 | 105.57961 | 25860 ft | 452 kts | 332° |
| 2026-05-07 12:55 | -4.49229 | 105.56402 | 25861 ft | 452 kts | 332° |
| 2026-05-07 12:55 | -4.46496 | 105.54847 | 25858 ft | 452 kts | 332° |
| 2026-05-07 12:55 | -4.43768 | 105.53295 | 25861 ft | 451 kts | 332° |
| 2026-05-07 12:55 | -4.41039 | 105.51742 | 25861 ft | 451 kts | 332° |
| 2026-05-07 12:56 | -4.38306 | 105.50187 | 25859 ft | 451 kts | 332° |
| 2026-05-07 12:56 | -4.35587 | 105.48641 | 25860 ft | 450 kts | 332° |
| 2026-05-07 12:56 | -4.32863 | 105.47091 | 25861 ft | 450 kts | 332° |
| 2026-05-07 12:56 | -4.30140 | 105.45542 | 25860 ft | 450 kts | 332° |
| 2026-05-07 12:57 | -4.27426 | 105.43998 | 25855 ft | 446 kts | 332° |
| 2026-05-07 12:57 | -4.24776 | 105.42489 | 25841 ft | 431 kts | 332° |
| 2026-05-07 12:57 | -4.22209 | 105.41027 | 25684 ft | 419 kts | 332° |
| 2026-05-07 12:57 | -4.19692 | 105.39596 | 25334 ft | 413 kts | 333° |
| 2026-05-07 12:58 | -4.17127 | 105.38294 | 24627 ft | 414 kts | 340° |
| 2026-05-07 12:58 | -4.14470 | 105.37237 | 24129 ft | 410 kts | 341° |
| 2026-05-07 12:58 | -4.11810 | 105.36232 | 23618 ft | 407 kts | 341° |
| 2026-05-07 12:58 | -4.09167 | 105.35243 | 23128 ft | 404 kts | 341° |
| 2026-05-07 12:59 | -4.06549 | 105.34257 | 22646 ft | 401 kts | 341° |
| 2026-05-07 12:59 | -4.03986 | 105.33280 | 22169 ft | 398 kts | 341° |
| 2026-05-07 12:59 | -4.01412 | 105.32290 | 21696 ft | 395 kts | 341° |
| 2026-05-07 12:59 | -3.98862 | 105.31303 | 21224 ft | 392 kts | 341° |
| 2026-05-07 13:00 | -3.96328 | 105.30318 | 20755 ft | 389 kts | 340° |
| 2026-05-07 13:00 | -3.93808 | 105.29336 | 20286 ft | 387 kts | 340° |
| 2026-05-07 13:00 | -3.91308 | 105.28362 | 19824 ft | 384 kts | 340° |
| 2026-05-07 13:00 | -3.88826 | 105.27396 | 19362 ft | 382 kts | 340° |
| 2026-05-07 13:01 | -3.86364 | 105.26436 | 18902 ft | 379 kts | 340° |
| 2026-05-07 13:01 | -3.83913 | 105.25480 | 18445 ft | 377 kts | 340° |
| 2026-05-07 13:01 | -3.81476 | 105.24530 | 17987 ft | 375 kts | 340° |
| 2026-05-07 13:01 | -3.79052 | 105.23585 | 17532 ft | 373 kts | 340° |
| 2026-05-07 13:02 | -3.76639 | 105.22644 | 17083 ft | 371 kts | 340° |
| 2026-05-07 13:02 | -3.74246 | 105.21711 | 16630 ft | 368 kts | 340° |
| 2026-05-07 13:02 | -3.71863 | 105.20783 | 16181 ft | 366 kts | 340° |
| 2026-05-07 13:02 | -3.69498 | 105.19861 | 15735 ft | 364 kts | 340° |
| 2026-05-07 13:03 | -3.67145 | 105.18944 | 15289 ft | 362 kts | 340° |
| 2026-05-07 13:03 | -3.64801 | 105.18031 | 14840 ft | 360 kts | 340° |
| 2026-05-07 13:03 | -3.62477 | 105.17126 | 14404 ft | 358 kts | 340° |
| 2026-05-07 13:03 | -3.60164 | 105.16224 | 13964 ft | 356 kts | 340° |
| 2026-05-07 13:04 | -3.57861 | 105.15325 | 13529 ft | 354 kts | 340° |
| 2026-05-07 13:04 | -3.55571 | 105.14434 | 13139 ft | 351 kts | 340° |
| 2026-05-07 13:04 | -3.53311 | 105.13554 | 12752 ft | 347 kts | 340° |
| 2026-05-07 13:04 | -3.51071 | 105.12682 | 12342 ft | 345 kts | 340° |
| 2026-05-07 13:05 | -3.48836 | 105.11811 | 11922 ft | 343 kts | 340° |
| 2026-05-07 13:05 | -3.46622 | 105.10948 | 11499 ft | 341 kts | 340° |
| 2026-05-07 13:05 | -3.44413 | 105.10088 | 11074 ft | 340 kts | 340° |
| 2026-05-07 13:05 | -3.42217 | 105.09233 | 10647 ft | 338 kts | 340° |
| 2026-05-07 13:06 | -3.40037 | 105.08384 | 10412 ft | 331 kts | 340° |
| 2026-05-07 13:06 | -3.37931 | 105.07564 | 10252 ft | 322 kts | 340° |
| 2026-05-07 13:06 | -3.35872 | 105.06762 | 10109 ft | 312 kts | 340° |
| 2026-05-07 13:06 | -3.33875 | 105.05985 | 9977 ft | 303 kts | 340° |
| 2026-05-07 13:07 | -3.31948 | 105.05234 | 9747 ft | 297 kts | 340° |
| 2026-05-07 13:07 | -3.29998 | 105.04475 | 9319 ft | 300 kts | 340° |
| 2026-05-07 13:07 | -3.28042 | 105.03715 | 8903 ft | 302 kts | 340° |
| 2026-05-07 13:07 | -3.26090 | 105.02954 | 8542 ft | 301 kts | 340° |
| 2026-05-07 13:08 | -3.24134 | 105.02193 | 8182 ft | 301 kts | 340° |
| 2026-05-07 13:08 | -3.22182 | 105.01433 | 7826 ft | 301 kts | 340° |
| 2026-05-07 13:08 | -3.20233 | 105.00674 | 7468 ft | 301 kts | 340° |
| 2026-05-07 13:08 | -3.18284 | 104.99916 | 7111 ft | 300 kts | 340° |
| 2026-05-07 13:09 | -3.16336 | 104.99160 | 6753 ft | 300 kts | 340° |
| 2026-05-07 13:09 | -3.14388 | 104.98401 | 6386 ft | 300 kts | 340° |
| 2026-05-07 13:09 | -3.12442 | 104.97643 | 5940 ft | 299 kts | 340° |
| 2026-05-07 13:09 | -3.10521 | 104.96894 | 5573 ft | 292 kts | 340° |
| 2026-05-07 13:10 | -3.08650 | 104.96165 | 5218 ft | 285 kts | 340° |
| 2026-05-07 13:10 | -3.06820 | 104.95453 | 4878 ft | 279 kts | 340° |
| 2026-05-07 13:10 | -3.05035 | 104.94758 | 4549 ft | 272 kts | 340° |
| 2026-05-07 13:10 | -3.03288 | 104.94078 | 4229 ft | 266 kts | 341° |
| 2026-05-07 13:11 | -3.01585 | 104.93416 | 4001 ft | 258 kts | 341° |
| 2026-05-07 13:11 | -2.99989 | 104.92685 | 3902 ft | 248 kts | 324° |
| 2026-05-07 13:11 | -2.98985 | 104.91362 | 3784 ft | 235 kts | 294° |
| 2026-05-07 13:11 | -2.98282 | 104.89936 | 3676 ft | 224 kts | 297° |
| 2026-05-07 13:12 | -2.97620 | 104.88569 | 3550 ft | 212 kts | 294° |
| 2026-05-07 13:12 | -2.97054 | 104.87266 | 3417 ft | 200 kts | 292° |
| 2026-05-07 13:12 | -2.96533 | 104.86025 | 3190 ft | 186 kts | 292° |
| 2026-05-07 13:12 | -2.96056 | 104.84882 | 2973 ft | 170 kts | 292° |
| 2026-05-07 13:13 | -2.95606 | 104.83805 | 2740 ft | 166 kts | 292° |
| 2026-05-07 13:13 | -2.95164 | 104.82745 | 2506 ft | 163 kts | 293° |
| 2026-05-07 13:13 | -2.94747 | 104.81749 | 2313 ft | 161 kts | 294° |
| 2026-05-07 13:13 | -2.94312 | 104.80708 | 2092 ft | 159 kts | 294° |
| 2026-05-07 13:14 | -2.93886 | 104.79692 | 1875 ft | 158 kts | 294° |
| 2026-05-07 13:14 | -2.93464 | 104.78684 | 1676 ft | 156 kts | 294° |
| 2026-05-07 13:14 | -2.93056 | 104.77703 | 1457 ft | 154 kts | 293° |
| 2026-05-07 13:14 | -2.92646 | 104.76720 | 1269 ft | 152 kts | 293° |
| 2026-05-07 13:15 | -2.92234 | 104.75736 | 1061 ft | 152 kts | 293° |
| 2026-05-07 13:15 | -2.91822 | 104.74785 | 868 ft | 150 kts | 292° |
| 2026-05-07 13:15 | -2.91430 | 104.73801 | 659 ft | 151 kts | 292° |
| 2026-05-07 13:15 | -2.91031 | 104.72825 | 449 ft | 152 kts | 294° |
| 2026-05-07 13:16 | -2.90614 | 104.71861 | 241 ft | 153 kts | 293° |
| 2026-05-07 13:16 | -2.90214 | 104.70899 | 45 ft | 148 kts | 293° |
| 2026-05-07 13:16 | -2.89851 | 104.70039 | 21 ft | 108 kts | 292° |
| 2026-05-07 13:16 | -2.89640 | 104.69541 | 13 ft | 49 kts | 293° |
| 2026-05-07 13:17 | -2.89544 | 104.69317 | 15 ft | 31 kts | 293° |
| 2026-05-07 13:17 | -2.89457 | 104.69234 | 15 ft | 15 kts | 6° |
| 2026-05-07 13:17 | -2.89399 | 104.69256 | 16 ft | 5 kts | 25° |
| 2026-05-07 13:17 | -2.89368 | 104.69279 | 17 ft | 5 kts | 57° |
| 2026-05-07 13:18 | -2.89365 | 104.69303 | 17 ft | 5 kts | 96° |
| 2026-05-07 13:18 | -2.89385 | 104.69355 | 18 ft | 8 kts | 112° |
| 2026-05-07 13:18 | -2.89404 | 104.69401 | 18 ft | 13 kts | 112° |
| 2026-05-07 13:18 | -2.89466 | 104.69549 | 16 ft | 21 kts | 113° |
| 2026-05-07 13:19 | -2.89526 | 104.69690 | 19 ft | 22 kts | 113° |
| 2026-05-07 13:19 | -2.89564 | 104.69780 | 18 ft | 21 kts | 112° |
| 2026-05-07 13:19 | -2.89620 | 104.69913 | 19 ft | 20 kts | 113° |
| 2026-05-07 13:19 | -2.89675 | 104.70043 | 21 ft | 20 kts | 113° |
| 2026-05-07 13:20 | -2.89721 | 104.70152 | 24 ft | 12 kts | 112° |
| 2026-05-07 13:20 | -2.89712 | 104.70219 | 26 ft | 6 kts | 35° |
| 2026-05-07 13:20 | -2.89662 | 104.70248 | 26 ft | 11 kts | 46° |
| 2026-05-07 13:20 | -2.89663 | 104.70322 | 25 ft | 11 kts | 110° |
| 2026-05-07 13:21 | -2.89689 | 104.70386 | 29 ft | 6 kts | 107° |
| 2026-05-07 13:21 | -2.89662 | 104.70416 | 26 ft | 6 kts | 25° |
| 2026-05-07 13:21 | -2.89628 | 104.70431 | 27 ft | 4 kts | 23° |
| 2026-05-07 13:21 | -2.89616 | 104.70436 | 29 ft | 1 kts | 23° |
| 2026-05-07 13:22 | -2.89612 | 104.70437 | 25 ft | 0 kts | 23° |